createdAt,value
2024-01-20T00:00:36.846Z,13.21
2024-01-20T00:01:36.806Z,13.27
2024-01-20T00:02:36.865Z,13.11
2024-01-20T00:03:37.004Z,13.11
2024-01-20T00:04:37.093Z,13.16
2024-01-20T00:05:37.081Z,13.11
2024-01-20T00:06:37.188Z,12.94
2024-01-20T00:07:37.258Z,13.48
2024-01-20T00:08:37.277Z,13.00
2024-01-20T00:09:46.031Z,13.00
2024-01-20T00:10:37.470Z,12.94
2024-01-20T00:11:37.537Z,12.94
2024-01-20T00:12:37.638Z,13.00
2024-01-20T00:13:37.763Z,13.00
2024-01-20T00:14:37.802Z,12.94
2024-01-20T00:15:37.882Z,12.94
2024-01-20T00:16:37.990Z,12.94
2024-01-20T00:17:38.178Z,12.94
2024-01-20T00:18:38.198Z,13.21
2024-01-20T00:19:38.271Z,12.78
2024-01-20T00:20:38.346Z,12.94
2024-01-20T00:21:38.348Z,13.16
2024-01-20T00:22:38.512Z,12.94
2024-01-20T00:23:38.514Z,12.89
2024-01-20T00:24:38.616Z,12.94
2024-01-20T00:25:38.708Z,12.94
2024-01-20T00:26:38.790Z,12.94
2024-01-20T00:27:38.875Z,12.89
2024-01-20T00:28:38.993Z,13.16
2024-01-20T00:29:39.040Z,12.94
2024-01-20T00:30:39.104Z,12.94
2024-01-20T00:31:39.254Z,12.94
2024-01-20T00:32:39.390Z,12.94
2024-01-20T00:33:39.589Z,12.94
2024-01-20T00:34:51.345Z,12.73
2024-01-20T00:35:39.562Z,12.57
2024-01-20T00:36:39.635Z,12.94
2024-01-20T00:37:40.280Z,12.73
2024-01-20T00:38:39.773Z,12.73
2024-01-20T00:39:39.861Z,12.73
2024-01-20T00:40:39.985Z,12.78
2024-01-20T00:41:40.010Z,12.78
2024-01-20T00:42:40.077Z,12.78
2024-01-20T00:43:40.220Z,12.78
2024-01-20T00:44:40.251Z,12.84
2024-01-20T00:45:40.343Z,12.78
2024-01-20T00:46:40.509Z,12.73
2024-01-20T00:47:41.175Z,12.57
2024-01-20T00:48:40.581Z,13.21
2024-01-20T00:49:41.282Z,12.51
2024-01-20T00:50:40.700Z,12.78
2024-01-20T00:51:40.793Z,12.57
2024-01-20T00:52:40.902Z,12.57
2024-01-20T00:53:40.933Z,12.73
2024-01-20T00:54:41.015Z,12.94
2024-01-20T00:55:41.115Z,12.73
2024-01-20T00:56:42.123Z,12.57
2024-01-20T00:57:41.257Z,12.73
2024-01-20T00:58:41.323Z,12.57
2024-01-20T00:59:41.396Z,12.57
2024-01-20T01:00:41.516Z,12.68
2024-01-20T01:01:42.364Z,12.57
2024-01-20T01:02:41.660Z,12.57
2024-01-20T01:03:41.845Z,12.78
2024-01-20T01:04:42.680Z,12.62
2024-01-20T01:05:41.911Z,12.68
2024-01-20T01:06:42.034Z,12.57
2024-01-20T01:07:42.137Z,12.57
2024-01-20T01:08:42.171Z,12.73
2024-01-20T01:09:42.265Z,12.57
2024-01-20T01:10:42.406Z,12.78
2024-01-20T01:11:42.438Z,12.57
2024-01-20T01:12:42.530Z,12.57
2024-01-20T01:13:42.680Z,12.73
2024-01-20T01:14:42.715Z,12.62
2024-01-20T01:15:42.808Z,12.51
2024-01-20T01:16:42.957Z,12.57
2024-01-20T01:17:42.991Z,12.57
2024-01-20T01:18:42.991Z,12.57
2024-01-20T01:19:43.382Z,12.57
2024-01-20T01:20:43.743Z,12.57
2024-01-20T01:21:43.258Z,12.14
2024-01-20T01:22:43.382Z,12.19
2024-01-20T01:23:43.479Z,12.57
2024-01-20T01:24:43.521Z,12.62
2024-01-20T01:25:43.665Z,11.87
2024-01-20T01:26:54.692Z,12.51
2024-01-20T01:27:43.752Z,12.19
2024-01-20T01:28:43.943Z,12.14
2024-01-20T01:29:43.959Z,12.19
2024-01-20T01:30:43.972Z,12.14
2024-01-20T01:31:44.708Z,12.19
2024-01-20T01:32:44.890Z,12.62
2024-01-20T01:33:44.229Z,12.30
2024-01-20T01:34:44.374Z,12.14
2024-01-20T01:35:44.351Z,12.19
2024-01-20T01:36:44.413Z,12.19
2024-01-20T01:37:44.565Z,12.19
2024-01-20T01:38:44.612Z,12.19
2024-01-20T01:39:44.661Z,12.35
2024-01-20T01:40:44.783Z,12.19
2024-01-20T01:41:44.807Z,12.19
2024-01-20T01:42:44.888Z,12.19
2024-01-20T01:43:44.971Z,12.35
2024-01-20T01:44:45.059Z,12.25
2024-01-20T01:45:45.154Z,12.25
2024-01-20T01:46:45.238Z,11.87
2024-01-20T01:47:45.349Z,11.98
2024-01-20T01:48:45.526Z,12.30
2024-01-20T01:49:45.511Z,12.14
2024-01-20T01:50:45.591Z,12.25
2024-01-20T01:51:45.673Z,12.19
2024-01-20T01:52:45.784Z,12.19
2024-01-20T01:53:45.845Z,12.30
2024-01-20T01:54:45.937Z,12.14
2024-01-20T01:55:46.051Z,12.03
2024-01-20T01:56:46.077Z,12.41
2024-01-20T01:57:46.170Z,12.14
2024-01-20T01:58:46.324Z,12.51
2024-01-20T01:59:46.445Z,11.98
2024-01-20T02:00:46.504Z,11.98
2024-01-20T02:01:46.528Z,12.19
2024-01-20T02:02:46.583Z,12.03
2024-01-20T02:03:46.805Z,11.98
2024-01-20T02:04:46.771Z,12.30
2024-01-20T02:05:46.907Z,12.19
2024-01-20T02:06:47.070Z,12.19
2024-01-20T02:07:47.028Z,12.03
2024-01-20T02:08:47.081Z,12.14
2024-01-20T02:09:47.163Z,11.98
2024-01-20T02:10:48.172Z,11.98
2024-01-20T02:11:47.350Z,11.98
2024-01-20T02:12:47.465Z,12.14
2024-01-20T02:13:47.538Z,11.98
2024-01-20T02:14:47.604Z,11.98
2024-01-20T02:15:48.293Z,11.98
2024-01-20T02:16:47.775Z,12.14
2024-01-20T02:17:47.875Z,11.98
2024-01-20T02:18:48.013Z,12.14
2024-01-20T02:19:48.045Z,11.98
2024-01-20T02:20:48.125Z,11.98
2024-01-20T02:21:48.229Z,11.98
2024-01-20T02:22:48.266Z,11.98
2024-01-20T02:23:48.340Z,12.03
2024-01-20T02:24:48.428Z,11.98
2024-01-20T02:25:48.508Z,12.08
2024-01-20T02:26:48.580Z,12.14
2024-01-20T02:27:48.764Z,11.98
2024-01-20T02:28:48.762Z,11.98
2024-01-20T02:29:48.862Z,11.98
2024-01-20T02:30:48.934Z,12.25
2024-01-20T02:31:49.036Z,11.92
2024-01-20T02:32:49.198Z,11.76
2024-01-20T02:33:49.257Z,11.76
2024-01-20T02:34:49.284Z,11.98
2024-01-20T02:35:49.458Z,11.98
2024-01-20T02:36:49.431Z,11.98
2024-01-20T02:37:49.546Z,12.03
2024-01-20T02:38:49.783Z,11.76
2024-01-20T02:39:49.672Z,11.98
2024-01-20T02:40:49.749Z,11.98
2024-01-20T02:41:49.871Z,11.76
2024-01-20T02:42:49.934Z,12.03
2024-01-20T02:43:50.080Z,11.82
2024-01-20T02:44:50.179Z,11.76
2024-01-20T02:45:50.227Z,11.82
2024-01-20T02:46:50.368Z,12.19
2024-01-20T02:47:50.497Z,11.98
2024-01-20T02:48:50.603Z,11.60
2024-01-20T02:49:50.645Z,11.76
2024-01-20T02:50:50.646Z,11.60
2024-01-20T02:51:51.657Z,11.76
2024-01-20T02:52:50.761Z,11.76
2024-01-20T02:53:50.911Z,11.82
2024-01-20T02:54:50.919Z,12.03
2024-01-20T02:55:50.999Z,11.82
2024-01-20T02:56:51.107Z,11.82
2024-01-20T02:57:52.138Z,11.76
2024-01-20T02:58:51.233Z,11.82
2024-01-20T02:59:51.347Z,11.55
2024-01-20T03:00:51.468Z,11.76
2024-01-20T03:01:51.464Z,11.76
2024-01-20T03:02:51.726Z,11.60
2024-01-20T03:03:51.742Z,11.92
2024-01-20T03:04:51.713Z,11.76
2024-01-20T03:05:52.010Z,11.87
2024-01-20T03:06:51.888Z,11.76
2024-01-20T03:07:51.945Z,11.76
2024-01-20T03:08:52.017Z,11.76
2024-01-20T03:09:52.067Z,11.82
2024-01-20T03:10:52.149Z,11.98
2024-01-20T03:11:52.337Z,11.60
2024-01-20T03:12:52.323Z,11.76
2024-01-20T03:13:52.420Z,11.82
2024-01-20T03:14:52.547Z,12.25
2024-01-20T03:15:52.614Z,11.76
2024-01-20T03:16:52.673Z,11.76
2024-01-20T03:17:52.826Z,11.82
2024-01-20T03:18:52.853Z,11.82
2024-01-20T03:19:52.970Z,11.55
2024-01-20T03:20:53.019Z,11.60
2024-01-20T03:21:53.085Z,11.82
2024-01-20T03:22:53.163Z,11.76
2024-01-20T03:23:53.267Z,11.76
2024-01-20T03:24:53.336Z,11.55
2024-01-20T03:25:53.410Z,11.82
2024-01-20T03:26:54.610Z,11.71
2024-01-20T03:27:53.576Z,11.60
2024-01-20T03:28:53.653Z,11.60
2024-01-20T03:29:53.770Z,11.76
2024-01-20T03:30:53.831Z,11.82
2024-01-20T03:31:53.922Z,11.66
2024-01-20T03:32:54.227Z,11.55
2024-01-20T03:33:54.208Z,11.76
2024-01-20T03:34:54.181Z,11.60
2024-01-20T03:35:54.285Z,11.82
2024-01-20T03:36:54.350Z,11.55
2024-01-20T03:37:54.458Z,11.60
2024-01-20T03:38:54.524Z,11.76
2024-01-20T03:39:54.605Z,11.71
2024-01-20T03:40:54.677Z,11.60
2024-01-20T03:41:54.797Z,11.66
2024-01-20T03:42:55.272Z,11.60
2024-01-20T03:43:54.918Z,11.60
2024-01-20T03:44:55.035Z,11.60
2024-01-20T03:45:55.871Z,11.60
2024-01-20T03:46:55.168Z,11.76
2024-01-20T03:47:55.451Z,11.60
2024-01-20T03:48:55.482Z,11.39
2024-01-20T03:49:55.469Z,11.60
2024-01-20T03:50:55.581Z,11.66
2024-01-20T03:51:55.610Z,11.82
2024-01-20T03:52:55.667Z,11.39
2024-01-20T03:53:55.877Z,11.60
2024-01-20T03:54:55.852Z,11.55
2024-01-20T03:55:55.946Z,11.28
2024-01-20T03:56:56.000Z,11.39
2024-01-20T03:57:56.078Z,11.60
2024-01-20T03:58:56.216Z,11.55
2024-01-20T03:59:56.256Z,11.60
2024-01-20T04:00:56.361Z,11.55
2024-01-20T04:01:56.411Z,11.39
2024-01-20T04:02:56.522Z,11.39
2024-01-20T04:03:56.677Z,11.39
2024-01-20T04:04:56.645Z,11.33
2024-01-20T04:05:56.738Z,11.60
2024-01-20T04:06:56.792Z,11.60
2024-01-20T04:07:56.874Z,11.44
2024-01-20T04:08:56.987Z,11.39
2024-01-20T04:09:57.033Z,11.39
2024-01-20T04:10:57.772Z,11.39
2024-01-20T04:11:57.225Z,11.60
2024-01-20T04:12:57.295Z,11.60
2024-01-20T04:13:57.385Z,11.55
2024-01-20T04:14:57.646Z,11.55
2024-01-20T04:15:57.537Z,11.49
2024-01-20T04:16:57.609Z,11.39
2024-01-20T04:17:57.872Z,11.39
2024-01-20T04:18:57.915Z,11.76
2024-01-20T04:19:58.778Z,11.39
2024-01-20T04:20:57.948Z,11.44
2024-01-20T04:21:57.970Z,11.39
2024-01-20T04:22:58.074Z,11.39
2024-01-20T04:23:58.168Z,11.39
2024-01-20T04:24:58.232Z,11.39
2024-01-20T04:25:58.308Z,11.44
2024-01-20T04:26:58.411Z,11.39
2024-01-20T04:27:58.523Z,11.39
2024-01-20T04:28:58.577Z,11.82
2024-01-20T04:29:58.724Z,11.39
2024-01-20T04:30:58.779Z,11.44
2024-01-20T04:31:58.850Z,11.39
2024-01-20T04:32:59.005Z,11.39
2024-01-20T04:33:59.134Z,11.44
2024-01-20T04:34:59.126Z,11.39
2024-01-20T04:35:59.206Z,11.44
2024-01-20T04:36:59.287Z,11.39
2024-01-20T04:37:59.340Z,11.39
2024-01-20T04:38:59.428Z,11.23
2024-01-20T04:39:59.517Z,11.23
2024-01-20T04:40:59.600Z,11.39
2024-01-20T04:41:59.705Z,11.23
2024-01-20T04:42:59.734Z,11.44
2024-01-20T04:43:59.814Z,11.39
2024-01-20T04:45:00.886Z,11.23
2024-01-20T04:45:59.998Z,11.39
2024-01-20T04:47:00.091Z,11.12
2024-01-20T04:48:00.342Z,11.17
2024-01-20T04:49:00.379Z,11.23
2024-01-20T04:50:00.331Z,11.23
2024-01-20T04:51:00.421Z,11.23
2024-01-20T04:52:00.475Z,11.17
2024-01-20T04:53:00.588Z,11.17
2024-01-20T04:54:00.660Z,11.39
2024-01-20T04:55:00.739Z,11.17
2024-01-20T04:56:00.816Z,11.23
2024-01-20T04:57:00.979Z,11.33
2024-01-20T04:58:00.962Z,11.55
2024-01-20T04:59:01.050Z,11.23
2024-01-20T05:00:01.213Z,11.23
2024-01-20T05:01:01.236Z,11.17
2024-01-20T05:02:01.291Z,11.23
2024-01-20T05:03:01.442Z,11.23
2024-01-20T05:04:01.537Z,11.23
2024-01-20T05:05:01.548Z,11.23
2024-01-20T05:06:01.666Z,11.39
2024-01-20T05:07:01.820Z,10.90
2024-01-20T05:08:01.797Z,11.17
2024-01-20T05:09:01.877Z,11.17
2024-01-20T05:10:01.928Z,11.17
2024-01-20T05:11:02.003Z,11.01
2024-01-20T05:12:02.137Z,11.01
2024-01-20T05:13:02.174Z,11.01
2024-01-20T05:14:02.253Z,10.96
2024-01-20T05:15:02.408Z,11.23
2024-01-20T05:16:02.412Z,11.01
2024-01-20T05:17:03.324Z,11.01
2024-01-20T05:18:02.712Z,11.01
2024-01-20T05:19:03.001Z,11.01
2024-01-20T05:20:03.017Z,11.01
2024-01-20T05:21:02.871Z,10.96
2024-01-20T05:22:02.958Z,11.01
2024-01-20T05:23:03.049Z,11.01
2024-01-20T05:24:03.119Z,11.01
2024-01-20T05:25:03.206Z,11.01
2024-01-20T05:26:03.326Z,10.90
2024-01-20T05:27:03.449Z,11.12
2024-01-20T05:28:03.448Z,11.01
2024-01-20T05:29:03.537Z,11.01
2024-01-20T05:30:03.694Z,10.96
2024-01-20T05:31:03.738Z,10.80
2024-01-20T05:32:03.773Z,10.74
2024-01-20T05:33:03.999Z,10.80
2024-01-20T05:34:04.238Z,11.01
2024-01-20T05:35:04.044Z,11.01
2024-01-20T05:36:04.136Z,11.33
2024-01-20T05:37:05.196Z,11.01
2024-01-20T05:38:04.285Z,11.33
2024-01-20T05:39:04.391Z,10.80
2024-01-20T05:40:04.436Z,10.85
2024-01-20T05:41:04.511Z,10.80
2024-01-20T05:42:04.619Z,10.80
2024-01-20T05:43:04.693Z,11.06
2024-01-20T05:44:04.818Z,10.80
2024-01-20T05:45:04.925Z,10.80
2024-01-20T05:46:04.947Z,10.85
2024-01-20T05:47:05.009Z,11.01
2024-01-20T05:48:05.182Z,10.58
2024-01-20T05:49:05.284Z,10.80
2024-01-20T05:50:05.254Z,10.80
2024-01-20T05:51:05.332Z,10.80
2024-01-20T05:52:05.386Z,10.80
2024-01-20T05:53:05.466Z,10.69
2024-01-20T05:54:05.559Z,10.80
2024-01-20T05:55:05.640Z,11.01
2024-01-20T05:56:05.741Z,10.80
2024-01-20T05:57:05.842Z,11.23
2024-01-20T05:58:05.940Z,10.80
2024-01-20T05:59:05.978Z,10.80
2024-01-20T06:00:06.047Z,10.63
2024-01-20T06:01:06.165Z,10.69
2024-01-20T06:02:06.210Z,10.58
2024-01-20T06:03:06.324Z,10.58
2024-01-20T06:04:06.419Z,10.80
2024-01-20T06:05:06.609Z,10.90
2024-01-20T06:06:06.559Z,10.58
2024-01-20T06:07:06.615Z,10.42
2024-01-20T06:08:06.760Z,10.63
2024-01-20T06:09:06.834Z,10.80
2024-01-20T06:10:06.914Z,10.53
2024-01-20T06:11:06.962Z,11.01
2024-01-20T06:12:07.061Z,10.63
2024-01-20T06:13:07.116Z,10.69
2024-01-20T06:14:07.193Z,10.63
2024-01-20T06:15:07.344Z,10.58
2024-01-20T06:16:07.340Z,10.63
2024-01-20T06:17:07.435Z,10.53
2024-01-20T06:18:08.212Z,10.69
2024-01-20T06:19:07.707Z,10.63
2024-01-20T06:20:07.713Z,10.21
2024-01-20T06:21:07.824Z,10.63
2024-01-20T06:22:07.846Z,10.58
2024-01-20T06:23:08.002Z,10.80
2024-01-20T06:24:08.023Z,10.63
2024-01-20T06:25:08.103Z,10.58
2024-01-20T06:26:08.185Z,10.58
2024-01-20T06:27:08.358Z,10.58
2024-01-20T06:28:08.315Z,10.74
2024-01-20T06:29:08.433Z,10.58
2024-01-20T06:30:08.540Z,10.21
2024-01-20T06:31:08.542Z,10.63
2024-01-20T06:32:08.629Z,10.26
2024-01-20T06:33:09.466Z,10.26
2024-01-20T06:34:08.849Z,10.63
2024-01-20T06:35:08.905Z,10.21
2024-01-20T06:36:08.980Z,10.21
2024-01-20T06:37:09.085Z,10.26
2024-01-20T06:38:09.119Z,10.53
2024-01-20T06:39:09.236Z,10.21
2024-01-20T06:40:09.316Z,10.21
2024-01-20T06:41:09.351Z,10.26
2024-01-20T06:42:09.510Z,10.26
2024-01-20T06:43:09.505Z,10.26
2024-01-20T06:44:09.584Z,10.21
2024-01-20T06:45:09.710Z,10.26
2024-01-20T06:46:09.756Z,10.15
2024-01-20T06:47:09.913Z,10.53
2024-01-20T06:48:10.002Z,10.69
2024-01-20T06:49:10.030Z,10.04
2024-01-20T06:50:10.076Z,10.26
2024-01-20T06:51:10.148Z,10.26
2024-01-20T06:52:10.189Z,10.21
2024-01-20T06:53:10.290Z,10.21
2024-01-20T06:54:10.389Z,10.26
2024-01-20T06:55:10.433Z,10.15
2024-01-20T06:56:10.500Z,10.21
2024-01-20T06:57:10.616Z,10.21
2024-01-20T06:58:10.674Z,10.26
2024-01-20T06:59:11.286Z,10.26
2024-01-20T07:00:10.848Z,10.63
2024-01-20T07:01:10.928Z,10.26
2024-01-20T07:02:10.988Z,10.21
2024-01-20T07:03:11.155Z,10.26
2024-01-20T07:04:11.223Z,10.26
2024-01-20T07:05:11.329Z,10.26
2024-01-20T07:06:11.419Z,10.26
2024-01-20T07:07:11.439Z,10.26
2024-01-20T07:08:11.514Z,10.53
2024-01-20T07:09:11.660Z,10.21
2024-01-20T07:10:11.687Z,9.99
2024-01-20T07:11:11.778Z,10.26
2024-01-20T07:12:11.888Z,10.21
2024-01-20T07:13:11.960Z,10.04
2024-01-20T07:14:12.031Z,9.99
2024-01-20T07:15:12.255Z,10.04
2024-01-20T07:16:12.199Z,10.04
2024-01-20T07:17:12.293Z,10.21
2024-01-20T07:18:12.506Z,10.04
2024-01-20T07:19:12.471Z,10.04
2024-01-20T07:20:12.512Z,10.04
2024-01-20T07:21:12.628Z,10.04
2024-01-20T07:22:12.669Z,10.04
2024-01-20T07:23:12.797Z,10.04
2024-01-20T07:24:12.841Z,9.99
2024-01-20T07:25:12.911Z,10.15
2024-01-20T07:26:12.984Z,9.99
2024-01-20T07:27:13.140Z,9.99
2024-01-20T07:28:13.193Z,10.04
2024-01-20T07:29:13.265Z,9.99
2024-01-20T07:30:14.336Z,9.83
2024-01-20T07:31:13.443Z,10.04
2024-01-20T07:32:13.531Z,10.04
2024-01-20T07:33:13.715Z,9.78
2024-01-20T07:34:13.768Z,10.21
2024-01-20T07:35:13.808Z,9.78
2024-01-20T07:36:14.811Z,9.83
2024-01-20T07:37:14.112Z,9.94
2024-01-20T07:38:14.017Z,9.83
2024-01-20T07:39:14.114Z,9.78
2024-01-20T07:40:14.933Z,9.83
2024-01-20T07:41:14.262Z,9.56
2024-01-20T07:42:14.341Z,9.67
2024-01-20T07:43:14.416Z,9.99
2024-01-20T07:44:14.506Z,9.78
2024-01-20T07:45:14.583Z,9.83
2024-01-20T07:46:14.654Z,9.99
2024-01-20T07:47:14.741Z,9.78
2024-01-20T07:48:14.970Z,9.83
2024-01-20T07:49:14.940Z,9.83
2024-01-20T07:50:14.946Z,9.83
2024-01-20T07:51:15.120Z,9.83
2024-01-20T07:52:15.107Z,9.61
2024-01-20T07:53:15.213Z,9.83
2024-01-20T07:54:15.354Z,9.78
2024-01-20T07:55:15.535Z,9.83
2024-01-20T07:56:15.464Z,9.78
2024-01-20T07:57:15.593Z,9.78
2024-01-20T07:58:15.625Z,9.78
2024-01-20T07:59:15.735Z,9.83
2024-01-20T08:00:16.329Z,9.83
2024-01-20T08:01:16.013Z,9.78
2024-01-20T08:02:15.957Z,9.78
2024-01-20T08:03:16.113Z,9.83
2024-01-20T08:04:16.157Z,9.83
2024-01-20T08:05:16.193Z,9.83
2024-01-20T08:06:16.333Z,9.78
2024-01-20T08:07:16.354Z,9.83
2024-01-20T08:08:16.428Z,9.83
2024-01-20T08:09:16.653Z,9.83
2024-01-20T08:10:16.601Z,9.67
2024-01-20T08:11:17.548Z,9.83
2024-01-20T08:12:16.813Z,9.83
2024-01-20T08:13:16.922Z,9.83
2024-01-20T08:14:17.001Z,9.78
2024-01-20T08:15:17.151Z,9.83
2024-01-20T08:16:17.257Z,10.21
2024-01-20T08:17:17.231Z,9.78
2024-01-20T08:18:17.499Z,10.15
2024-01-20T08:19:17.535Z,9.78
2024-01-20T08:20:17.509Z,9.83
2024-01-20T08:21:17.639Z,9.83
2024-01-20T08:22:18.300Z,9.78
2024-01-20T08:23:17.751Z,9.83
2024-01-20T08:24:17.861Z,9.83
2024-01-20T08:25:17.892Z,9.83
2024-01-20T08:26:17.980Z,9.94
2024-01-20T08:27:18.169Z,9.88
2024-01-20T08:28:18.910Z,9.83
2024-01-20T08:29:18.231Z,9.78
2024-01-20T08:30:18.487Z,9.88
2024-01-20T08:31:18.530Z,9.83
2024-01-20T08:32:18.500Z,9.83
2024-01-20T08:33:18.665Z,9.99
2024-01-20T08:34:19.415Z,9.51
2024-01-20T08:35:18.739Z,9.61
2024-01-20T08:36:18.868Z,10.26
2024-01-20T08:37:18.870Z,9.83
2024-01-20T08:38:18.959Z,9.83
2024-01-20T08:39:19.070Z,9.83
2024-01-20T08:40:19.095Z,9.83
2024-01-20T08:41:19.200Z,9.88
2024-01-20T08:42:19.355Z,9.83
2024-01-20T08:43:19.340Z,9.83
2024-01-20T08:44:19.403Z,9.83
2024-01-20T08:45:19.517Z,9.83
2024-01-20T08:46:19.599Z,9.88
2024-01-20T08:47:19.654Z,9.83
2024-01-20T08:48:19.798Z,9.61
2024-01-20T08:49:19.821Z,9.88
2024-01-20T08:50:19.879Z,9.83
2024-01-20T08:51:19.984Z,9.83
2024-01-20T08:52:20.059Z,9.67
2024-01-20T08:53:20.180Z,9.78
2024-01-20T08:54:20.259Z,9.83
2024-01-20T08:55:20.318Z,9.94
2024-01-20T08:56:20.378Z,10.21
2024-01-20T08:57:20.497Z,9.61
2024-01-20T08:58:20.521Z,9.83
2024-01-20T08:59:20.612Z,9.83
2024-01-20T09:00:20.704Z,9.83
2024-01-20T09:01:20.796Z,9.88
2024-01-20T09:02:20.805Z,9.83
2024-01-20T09:03:21.119Z,9.83
2024-01-20T09:04:20.964Z,9.78
2024-01-20T09:05:21.127Z,9.83
2024-01-20T09:06:21.189Z,9.83
2024-01-20T09:07:21.193Z,9.83
2024-01-20T09:08:21.297Z,9.83
2024-01-20T09:09:21.391Z,9.83
2024-01-20T09:10:21.454Z,9.78
2024-01-20T09:11:21.514Z,9.61
2024-01-20T09:12:21.631Z,9.67
2024-01-20T09:13:21.672Z,9.83
2024-01-20T09:14:21.753Z,9.83
2024-01-20T09:15:21.891Z,9.83
2024-01-20T09:16:21.961Z,9.83
2024-01-20T09:17:21.998Z,9.83
2024-01-20T09:18:24.776Z,9.83
2024-01-20T09:19:22.236Z,9.83
2024-01-20T09:20:22.302Z,10.04
2024-01-20T09:21:22.337Z,9.61
2024-01-20T09:22:22.367Z,9.83
2024-01-20T09:23:22.445Z,9.83
2024-01-20T09:24:22.552Z,10.04
2024-01-20T09:25:22.599Z,9.83
2024-01-20T09:26:22.678Z,9.83
2024-01-20T09:27:22.811Z,9.72
2024-01-20T09:28:22.835Z,9.83
2024-01-20T09:29:22.899Z,9.83
2024-01-20T09:30:23.011Z,9.83
2024-01-20T09:31:23.051Z,9.88
2024-01-20T09:32:23.113Z,9.88
2024-01-20T09:33:23.297Z,9.88
2024-01-20T09:34:23.410Z,9.88
2024-01-20T09:35:23.345Z,9.61
2024-01-20T09:36:23.437Z,9.83
2024-01-20T09:37:23.529Z,9.83
2024-01-20T09:38:23.595Z,9.83
2024-01-20T09:39:23.665Z,9.83
2024-01-20T09:40:23.785Z,9.83
2024-01-20T09:41:23.815Z,9.83
2024-01-20T09:42:23.979Z,9.83
2024-01-20T09:43:23.958Z,9.83
2024-01-20T09:44:24.033Z,9.83
2024-01-20T09:45:24.159Z,9.78
2024-01-20T09:46:24.184Z,9.83
2024-01-20T09:47:24.300Z,9.83
2024-01-20T09:48:24.479Z,9.67
2024-01-20T09:49:24.624Z,9.83
2024-01-20T09:50:24.523Z,9.83
2024-01-20T09:51:24.692Z,9.78
2024-01-20T09:52:24.721Z,9.78
2024-01-20T09:53:24.854Z,9.83
2024-01-20T09:54:25.004Z,9.83
2024-01-20T09:55:25.053Z,9.83
2024-01-20T09:56:25.014Z,9.61
2024-01-20T09:57:25.122Z,9.56
2024-01-20T09:58:25.160Z,10.21
2024-01-20T09:59:25.276Z,9.83
2024-01-20T10:00:25.375Z,9.88
2024-01-20T10:01:25.421Z,9.83
2024-01-20T10:02:25.509Z,9.83
2024-01-20T10:03:25.618Z,9.78
2024-01-20T10:04:25.700Z,10.26
2024-01-20T10:05:25.804Z,9.88
2024-01-20T10:06:25.917Z,9.83
2024-01-20T10:07:25.860Z,9.88
2024-01-20T10:08:25.942Z,9.83
2024-01-20T10:09:26.032Z,9.83
2024-01-20T10:10:26.097Z,9.88
2024-01-20T10:11:26.157Z,9.78
2024-01-20T10:12:26.301Z,9.88
2024-01-20T10:13:26.336Z,9.83
2024-01-20T10:14:26.418Z,9.83
2024-01-20T10:15:28.043Z,9.83
2024-01-20T10:16:26.550Z,9.83
2024-01-20T10:17:26.650Z,9.83
2024-01-20T10:18:26.789Z,9.88
2024-01-20T10:19:26.835Z,9.78
2024-01-20T10:20:26.867Z,9.61
2024-01-20T10:21:26.955Z,9.78
2024-01-20T10:22:27.043Z,9.83
2024-01-20T10:23:27.137Z,10.31
2024-01-20T10:24:27.273Z,9.78
2024-01-20T10:25:27.267Z,9.94
2024-01-20T10:26:27.368Z,9.78
2024-01-20T10:27:27.528Z,9.88
2024-01-20T10:28:28.373Z,9.83
2024-01-20T10:29:27.668Z,9.83
2024-01-20T10:30:27.834Z,9.78
2024-01-20T10:31:27.814Z,9.83
2024-01-20T10:32:28.153Z,9.83
2024-01-20T10:33:28.078Z,9.72
2024-01-20T10:34:28.153Z,9.83
2024-01-20T10:35:28.955Z,9.88
2024-01-20T10:36:28.274Z,9.83
2024-01-20T10:37:28.303Z,9.88
2024-01-20T10:38:28.414Z,9.88
2024-01-20T10:39:28.544Z,9.83
2024-01-20T10:40:28.575Z,9.83
2024-01-20T10:41:28.654Z,9.83
2024-01-20T10:42:28.773Z,9.78
2024-01-20T10:43:28.847Z,9.83
2024-01-20T10:44:28.943Z,9.88
2024-01-20T10:45:29.029Z,9.83
2024-01-20T10:46:29.112Z,9.72
2024-01-20T10:47:29.226Z,9.88
2024-01-20T10:48:29.472Z,9.83
2024-01-20T10:49:29.961Z,9.78
2024-01-20T10:50:29.433Z,9.78
2024-01-20T10:51:29.640Z,9.78
2024-01-20T10:52:29.620Z,9.78
2024-01-20T10:53:29.684Z,9.78
2024-01-20T10:54:29.768Z,9.78
2024-01-20T10:55:29.842Z,9.83
2024-01-20T10:56:29.927Z,9.83
2024-01-20T10:57:30.081Z,9.78
2024-01-20T10:58:30.089Z,9.78
2024-01-20T10:59:30.171Z,9.83
2024-01-20T11:00:30.304Z,9.83
2024-01-20T11:01:30.348Z,9.83
2024-01-20T11:02:30.408Z,9.78
2024-01-20T11:03:30.556Z,9.78
2024-01-20T11:04:30.673Z,9.83
2024-01-20T11:05:30.699Z,9.83
2024-01-20T11:06:30.883Z,9.83
2024-01-20T11:07:30.859Z,9.83
2024-01-20T11:08:30.974Z,9.83
2024-01-20T11:09:31.081Z,9.83
2024-01-20T11:10:31.154Z,9.83
2024-01-20T11:11:31.809Z,9.83
2024-01-20T11:12:31.468Z,9.78
2024-01-20T11:13:31.368Z,9.83
2024-01-20T11:14:32.241Z,9.83
2024-01-20T11:15:31.534Z,9.83
2024-01-20T11:16:31.622Z,9.83
2024-01-20T11:17:31.683Z,9.78
2024-01-20T11:18:31.872Z,9.88
2024-01-20T11:19:31.898Z,9.78
2024-01-20T11:20:31.936Z,9.83
2024-01-20T11:21:32.016Z,9.83
2024-01-20T11:22:32.107Z,9.83
2024-01-20T11:23:32.223Z,9.83
2024-01-20T11:24:32.331Z,9.83
2024-01-20T11:25:32.353Z,9.83
2024-01-20T11:26:32.384Z,9.83
2024-01-20T11:27:32.491Z,9.83
2024-01-20T11:28:32.589Z,9.78
2024-01-20T11:29:32.610Z,9.78
2024-01-20T11:30:32.788Z,9.83
2024-01-20T11:31:32.759Z,10.15
2024-01-20T11:32:32.924Z,9.99
2024-01-20T11:33:33.278Z,9.88
2024-01-20T11:34:33.078Z,9.83
2024-01-20T11:35:33.066Z,9.99
2024-01-20T11:36:33.216Z,9.99
2024-01-20T11:37:33.243Z,9.78
2024-01-20T11:38:33.373Z,9.83
2024-01-20T11:39:33.451Z,10.04
2024-01-20T11:40:33.548Z,9.99
2024-01-20T11:41:33.580Z,10.26
2024-01-20T11:42:33.710Z,9.83
2024-01-20T11:43:34.327Z,9.78
2024-01-20T11:44:33.957Z,9.99
2024-01-20T11:45:34.002Z,9.99
2024-01-20T11:46:33.996Z,10.04
2024-01-20T11:47:34.107Z,9.83
2024-01-20T11:48:34.289Z,9.83
2024-01-20T11:49:34.331Z,9.83
2024-01-20T11:50:34.346Z,9.83
2024-01-20T11:51:34.420Z,10.04
2024-01-20T11:52:34.494Z,10.04
2024-01-20T11:53:34.592Z,9.83
2024-01-20T11:54:34.678Z,9.99
2024-01-20T11:55:34.743Z,10.04
2024-01-20T11:56:34.820Z,9.99
2024-01-20T11:57:34.927Z,9.99
2024-01-20T11:58:34.994Z,9.83
2024-01-20T11:59:35.053Z,10.04
2024-01-20T12:00:35.278Z,9.99
2024-01-20T12:01:35.254Z,9.88
2024-01-20T12:02:35.320Z,9.99
2024-01-20T12:03:35.418Z,9.83
2024-01-20T12:04:35.502Z,9.88
2024-01-20T12:05:35.670Z,10.04
2024-01-20T12:06:35.715Z,10.04
2024-01-20T12:07:35.727Z,10.04
2024-01-20T12:08:35.819Z,9.83
2024-01-20T12:09:36.853Z,9.99
2024-01-20T12:10:35.968Z,9.83
2024-01-20T12:11:36.030Z,10.15
2024-01-20T12:12:36.170Z,10.04
2024-01-20T12:13:36.232Z,9.99
2024-01-20T12:14:36.279Z,10.04
2024-01-20T12:15:36.463Z,9.83
2024-01-20T12:16:36.463Z,10.04
2024-01-20T12:17:36.571Z,10.04
2024-01-20T12:18:36.715Z,10.04
2024-01-20T12:19:36.705Z,9.83
2024-01-20T12:20:36.758Z,10.04
2024-01-20T12:21:36.928Z,10.04
2024-01-20T12:22:36.914Z,10.04
2024-01-20T12:23:36.967Z,9.99
2024-01-20T12:24:37.138Z,10.04
2024-01-20T12:25:37.147Z,10.47
2024-01-20T12:26:37.199Z,10.04
2024-01-20T12:27:37.333Z,9.99
2024-01-20T12:28:37.395Z,10.04
2024-01-20T12:29:37.435Z,10.04
2024-01-20T12:30:38.339Z,10.47
2024-01-20T12:31:37.584Z,9.99
2024-01-20T12:32:37.680Z,10.04
2024-01-20T12:33:37.849Z,10.26
2024-01-20T12:34:37.841Z,10.04
2024-01-20T12:35:37.887Z,9.83
2024-01-20T12:36:38.131Z,9.99
2024-01-20T12:37:38.061Z,10.10
2024-01-20T12:38:38.112Z,9.99
2024-01-20T12:39:38.293Z,10.04
2024-01-20T12:40:38.277Z,10.21
2024-01-20T12:41:38.356Z,10.21
2024-01-20T12:42:41.281Z,10.21
2024-01-20T12:43:38.548Z,10.26
2024-01-20T12:44:38.611Z,10.10
2024-01-20T12:45:38.791Z,10.15
2024-01-20T12:46:38.750Z,10.21
2024-01-20T12:47:38.874Z,10.21
2024-01-20T12:48:42.166Z,10.04
2024-01-20T12:49:39.077Z,10.26
2024-01-20T12:50:39.055Z,10.26
2024-01-20T12:51:39.178Z,10.21
2024-01-20T12:52:39.221Z,10.26
2024-01-20T12:53:39.291Z,10.21
2024-01-20T12:54:39.471Z,10.26
2024-01-20T12:55:39.458Z,10.21
2024-01-20T12:56:39.504Z,10.26
2024-01-20T12:57:39.671Z,10.21
2024-01-20T12:58:39.691Z,10.21
2024-01-20T12:59:39.751Z,10.26
2024-01-20T13:00:39.889Z,10.26
2024-01-20T13:01:40.020Z,10.26
2024-01-20T13:02:40.048Z,10.26